createdAt,value
2022-11-07T00:01:57.499Z,13.80
2022-11-07T00:04:27.292Z,13.70
2022-11-07T00:06:56.865Z,13.70
2022-11-07T00:09:26.653Z,13.70
2022-11-07T00:11:54.200Z,13.70
2022-11-07T00:14:21.294Z,13.70
2022-11-07T00:16:52.835Z,13.70
2022-11-07T00:19:25.861Z,13.70
2022-11-07T00:21:58.241Z,13.70
2022-11-07T00:24:25.302Z,13.70
2022-11-07T00:26:52.766Z,13.70
2022-11-07T00:29:23.078Z,13.70
2022-11-07T00:31:50.625Z,13.70
2022-11-07T00:34:17.814Z,13.70
2022-11-07T00:36:47.024Z,13.70
2022-11-07T00:39:14.118Z,13.70
2022-11-07T00:41:41.284Z,13.70
2022-11-07T00:44:08.436Z,13.70
2022-11-07T00:46:37.815Z,13.70
2022-11-07T00:49:04.950Z,13.80
2022-11-07T00:51:36.614Z,13.80
2022-11-07T00:54:07.209Z,13.80
2022-11-07T00:56:34.504Z,13.80
2022-11-07T00:59:04.158Z,13.70
2022-11-07T01:01:35.288Z,13.70
2022-11-07T01:04:21.010Z,13.80
2022-11-07T01:06:51.161Z,13.80
2022-11-07T01:09:23.803Z,13.80
2022-11-07T01:11:51.211Z,13.80
2022-11-07T01:14:23.622Z,13.80
2022-11-07T01:16:51.497Z,13.80
2022-11-07T01:19:19.567Z,13.80
2022-11-07T01:21:46.970Z,13.80
2022-11-07T01:24:17.044Z,13.80
2022-11-07T01:26:48.072Z,13.80
2022-11-07T01:29:17.174Z,13.80
2022-11-07T01:31:44.527Z,13.80
2022-11-07T01:34:12.130Z,13.90
2022-11-07T01:36:39.623Z,13.90
2022-11-07T01:39:06.780Z,13.90
2022-11-07T01:41:36.454Z,13.90
2022-11-07T01:44:09.401Z,13.90
2022-11-07T01:46:44.893Z,14.00
2022-11-07T01:49:29.377Z,13.90
2022-11-07T01:51:59.264Z,13.90
2022-11-07T01:54:33.905Z,14.00
2022-11-07T01:57:07.240Z,14.00
2022-11-07T01:59:36.358Z,14.00
2022-11-07T02:02:04.305Z,14.00
2022-11-07T02:04:34.062Z,14.00
2022-11-07T02:07:13.949Z,14.00
2022-11-07T02:09:44.490Z,14.00
2022-11-07T02:12:11.810Z,14.00
2022-11-07T02:14:38.981Z,14.00
2022-11-07T02:17:06.088Z,14.00
2022-11-07T02:19:51.625Z,14.00
2022-11-07T02:22:45.720Z,14.00
2022-11-07T02:25:15.765Z,14.00
2022-11-07T02:27:44.532Z,14.00
2022-11-07T02:30:15.782Z,14.00
2022-11-07T02:32:42.882Z,14.10
2022-11-07T02:35:31.509Z,14.00
2022-11-07T02:37:58.929Z,14.00
2022-11-07T02:40:30.820Z,14.00
2022-11-07T02:43:00.026Z,14.00
2022-11-07T02:45:40.572Z,14.00
2022-11-07T02:48:12.313Z,14.00
2022-11-07T02:50:40.776Z,14.00
2022-11-07T02:53:08.049Z,14.00
2022-11-07T02:55:35.144Z,14.00
2022-11-07T02:58:02.662Z,14.00
2022-11-07T03:00:29.883Z,14.00
2022-11-07T03:02:57.119Z,14.00
2022-11-07T03:05:24.429Z,14.00
2022-11-07T03:07:51.535Z,14.00
2022-11-07T03:10:18.964Z,14.00
2022-11-07T03:12:46.277Z,14.00
2022-11-07T03:15:13.983Z,14.00
2022-11-07T03:17:44.716Z,14.00
2022-11-07T03:20:13.922Z,14.00
2022-11-07T03:22:46.280Z,13.90
2022-11-07T03:25:15.423Z,13.90
2022-11-07T03:27:49.021Z,14.00
2022-11-07T03:30:16.918Z,14.00
2022-11-07T03:32:44.084Z,14.00
2022-11-07T03:35:11.299Z,13.90
2022-11-07T03:37:38.448Z,14.00
2022-11-07T03:40:08.775Z,14.00
2022-11-07T03:42:39.919Z,14.00
2022-11-07T03:45:08.299Z,14.00
2022-11-07T03:47:37.086Z,14.00
2022-11-07T03:50:04.937Z,14.00
2022-11-07T03:52:34.451Z,14.00
2022-11-07T03:55:01.588Z,14.00
2022-11-07T03:57:28.734Z,14.00
2022-11-07T03:59:58.069Z,14.00
2022-11-07T04:02:25.503Z,14.00
2022-11-07T04:04:52.716Z,14.00
2022-11-07T04:07:19.778Z,14.00
2022-11-07T04:09:46.875Z,14.00
2022-11-07T04:12:35.226Z,14.00
2022-11-07T04:15:20.937Z,14.00
2022-11-07T04:17:47.997Z,14.00
2022-11-07T04:20:15.151Z,14.00
2022-11-07T04:22:42.191Z,14.10
2022-11-07T04:25:09.972Z,14.10
2022-11-07T04:27:43.039Z,14.10
2022-11-07T04:30:23.805Z,14.10
2022-11-07T04:32:59.143Z,14.10
2022-11-07T04:35:29.622Z,14.10
2022-11-07T04:37:56.915Z,14.10
2022-11-07T04:40:26.595Z,14.10
2022-11-07T04:42:56.576Z,14.20
2022-11-07T04:45:24.039Z,14.20
2022-11-07T04:47:54.051Z,14.20
2022-11-07T04:50:21.265Z,14.20
2022-11-07T04:52:48.476Z,14.20
2022-11-07T04:55:24.650Z,14.30
2022-11-07T04:57:52.061Z,14.20
2022-11-07T05:00:20.513Z,14.30
2022-11-07T05:02:48.211Z,14.30
2022-11-07T05:05:16.211Z,14.30
2022-11-07T05:07:46.693Z,14.30
2022-11-07T05:10:23.162Z,14.30
2022-11-07T05:12:51.592Z,14.30
2022-11-07T05:15:19.539Z,14.30
2022-11-07T05:17:46.742Z,14.30
2022-11-07T05:20:30.750Z,14.40
2022-11-07T05:23:15.403Z,14.30
2022-11-07T05:25:43.874Z,14.40
2022-11-07T05:28:15.895Z,14.40
2022-11-07T05:30:44.492Z,14.40
2022-11-07T05:33:16.481Z,14.40
2022-11-07T05:35:44.994Z,14.40
2022-11-07T05:38:12.612Z,14.40
2022-11-07T05:40:40.931Z,14.50
2022-11-07T05:43:10.475Z,14.40
2022-11-07T05:45:43.670Z,14.40
2022-11-07T05:48:17.678Z,14.40
2022-11-07T05:50:46.147Z,14.40
2022-11-07T05:53:13.658Z,14.40
2022-11-07T05:55:41.649Z,14.40
2022-11-07T05:58:10.685Z,14.40
2022-11-07T06:00:38.176Z,14.40
2022-11-07T06:03:05.632Z,14.40
2022-11-07T06:05:33.067Z,14.50
2022-11-07T06:08:00.280Z,14.40
2022-11-07T06:10:27.351Z,14.40
2022-11-07T06:13:00.112Z,14.50
2022-11-07T06:15:32.897Z,14.50
2022-11-07T06:18:01.535Z,14.50
2022-11-07T06:20:31.880Z,14.40
2022-11-07T06:23:00.157Z,14.40
2022-11-07T06:25:28.598Z,14.50
2022-11-07T06:28:04.841Z,14.50
2022-11-07T06:30:34.592Z,14.50
2022-11-07T06:33:11.671Z,14.50
2022-11-07T06:35:41.711Z,14.50
2022-11-07T06:38:10.968Z,14.60
2022-11-07T06:40:38.812Z,14.60
2022-11-07T06:43:07.967Z,14.60
2022-11-07T06:45:38.008Z,14.60
2022-11-07T06:48:05.712Z,14.60
2022-11-07T06:50:33.350Z,14.70
2022-11-07T06:53:11.951Z,14.60
2022-11-07T06:55:39.556Z,14.70
2022-11-07T06:58:06.741Z,14.70
2022-11-07T07:00:36.276Z,14.70
2022-11-07T07:03:04.028Z,14.70
2022-11-07T07:05:33.168Z,14.70
2022-11-07T07:08:00.362Z,14.80
2022-11-07T07:10:27.519Z,14.70
2022-11-07T07:12:54.712Z,14.80
2022-11-07T07:15:21.886Z,14.80
2022-11-07T07:17:49.205Z,14.80
2022-11-07T07:20:16.377Z,14.80
2022-11-07T07:22:51.658Z,14.80
2022-11-07T07:25:24.513Z,14.80
2022-11-07T07:27:51.703Z,14.80
2022-11-07T07:30:18.751Z,14.80
2022-11-07T07:32:45.864Z,14.80
2022-11-07T07:35:12.980Z,14.80
2022-11-07T07:37:40.040Z,14.90
2022-11-07T07:40:10.745Z,14.90
2022-11-07T07:42:42.466Z,14.90
2022-11-07T07:45:11.495Z,14.90
2022-11-07T07:47:38.958Z,14.90
2022-11-07T07:50:08.215Z,14.90
2022-11-07T07:52:35.474Z,14.90
2022-11-07T07:55:02.975Z,15.00
2022-11-07T07:57:30.209Z,15.00
2022-11-07T07:59:57.293Z,15.00
2022-11-07T08:02:24.527Z,15.00
2022-11-07T08:04:53.829Z,15.00
2022-11-07T08:07:20.959Z,15.00
2022-11-07T08:09:48.076Z,15.00
2022-11-07T08:12:15.215Z,15.10
2022-11-07T08:14:42.354Z,15.10
2022-11-07T08:17:12.040Z,15.10
2022-11-07T08:19:42.221Z,15.10
2022-11-07T08:22:09.316Z,15.10
2022-11-07T08:24:36.435Z,15.20
2022-11-07T08:27:03.609Z,15.20
2022-11-07T08:29:30.884Z,15.20
2022-11-07T08:31:58.235Z,15.20
2022-11-07T08:34:25.681Z,15.20
2022-11-07T08:36:52.827Z,15.30
2022-11-07T08:39:19.891Z,15.30
2022-11-07T08:41:47.083Z,15.40
2022-11-07T08:44:16.281Z,15.40
2022-11-07T08:46:43.484Z,15.40
2022-11-07T08:49:10.684Z,15.50
2022-11-07T08:51:39.031Z,15.50
2022-11-07T08:54:06.289Z,15.50
2022-11-07T08:56:34.306Z,15.50
2022-11-07T08:59:01.554Z,15.60
2022-11-07T09:01:29.058Z,15.60
2022-11-07T09:03:58.356Z,15.60
2022-11-07T09:06:26.470Z,15.60
2022-11-07T09:08:53.830Z,15.70
2022-11-07T09:11:22.245Z,15.70
2022-11-07T09:13:49.611Z,15.80
2022-11-07T09:16:22.483Z,15.80
2022-11-07T09:18:53.430Z,15.80
2022-11-07T09:21:22.740Z,15.80
2022-11-07T09:23:54.004Z,15.80
2022-11-07T09:26:23.611Z,15.80
2022-11-07T09:28:53.999Z,15.90
2022-11-07T09:31:22.456Z,15.90
2022-11-07T09:33:49.701Z,16.00
2022-11-07T09:36:16.851Z,16.00
2022-11-07T09:38:44.083Z,16.00
2022-11-07T09:41:32.997Z,16.00
2022-11-07T09:44:16.224Z,16.10
2022-11-07T09:46:52.338Z,16.10
2022-11-07T09:49:34.179Z,16.20
2022-11-07T09:52:28.240Z,16.10
2022-11-07T09:55:28.049Z,16.20
2022-11-07T09:58:00.841Z,16.20
2022-11-07T10:00:33.667Z,16.20
2022-11-07T10:03:02.442Z,16.30
2022-11-07T10:05:52.891Z,16.30
2022-11-07T10:08:29.184Z,16.40
2022-11-07T10:11:07.229Z,16.40
2022-11-07T10:14:02.013Z,16.50
2022-11-07T10:16:56.934Z,16.50
2022-11-07T10:19:46.556Z,16.60
2022-11-07T10:22:23.305Z,16.60
2022-11-07T10:25:05.814Z,16.60
2022-11-07T10:27:34.544Z,16.70
2022-11-07T10:30:01.944Z,16.70
2022-11-07T10:32:47.812Z,16.70
2022-11-07T10:35:28.447Z,16.80
2022-11-07T10:37:58.236Z,16.80
2022-11-07T10:40:33.625Z,16.80
2022-11-07T10:43:03.322Z,16.80
2022-11-07T10:45:31.575Z,16.80
2022-11-07T10:48:02.848Z,16.90
2022-11-07T10:50:30.661Z,16.90
2022-11-07T10:53:09.643Z,17.00
2022-11-07T10:55:45.844Z,17.00
2022-11-07T10:58:27.717Z,17.10
2022-11-07T11:00:57.822Z,17.10
2022-11-07T11:03:43.283Z,17.20
2022-11-07T11:06:31.297Z,17.20
2022-11-07T11:09:11.666Z,17.20
2022-11-07T11:11:39.893Z,17.20
2022-11-07T11:14:13.709Z,17.30
2022-11-07T11:16:44.818Z,17.30
2022-11-07T11:19:25.650Z,17.40
2022-11-07T11:21:55.858Z,17.40
2022-11-07T11:24:37.479Z,17.40
2022-11-07T11:27:23.286Z,17.40
2022-11-07T11:30:20.671Z,17.40
2022-11-07T11:33:03.506Z,17.40
2022-11-07T11:35:49.463Z,17.50
2022-11-07T11:38:21.515Z,17.50
2022-11-07T11:41:10.267Z,17.50
2022-11-07T11:43:50.567Z,17.50
2022-11-07T11:46:47.917Z,17.40
2022-11-07T11:49:42.470Z,17.40
2022-11-07T11:52:22.344Z,17.50
2022-11-07T11:54:52.750Z,17.50
2022-11-07T11:57:40.780Z,17.40
2022-11-07T12:00:14.430Z,17.40
2022-11-07T12:02:59.783Z,17.40
2022-11-07T12:05:38.849Z,17.40
2022-11-07T12:08:27.800Z,17.40
2022-11-07T12:11:22.768Z,17.40
2022-11-07T12:14:05.362Z,17.40
2022-11-07T12:16:46.800Z,17.30
2022-11-07T12:19:51.935Z,17.30
2022-11-07T12:22:38.633Z,17.30
2022-11-07T12:25:11.874Z,17.40
2022-11-07T12:28:00.223Z,17.40
2022-11-07T12:30:40.918Z,17.40
2022-11-07T12:33:23.309Z,17.40
2022-11-07T12:35:52.520Z,17.50
2022-11-07T12:38:42.890Z,17.50
2022-11-07T12:41:27.896Z,17.60
2022-11-07T12:44:00.725Z,17.60
2022-11-07T12:46:44.201Z,17.60
2022-11-07T12:49:26.384Z,17.60
2022-11-07T12:52:31.326Z,17.60
2022-11-07T12:55:19.505Z,17.70
2022-11-07T12:57:50.400Z,17.70
2022-11-07T13:00:30.321Z,17.70
2022-11-07T13:03:35.439Z,17.70
2022-11-07T13:06:15.724Z,17.70
2022-11-07T13:08:58.774Z,17.70
2022-11-07T13:11:34.846Z,17.80
2022-11-07T13:14:24.525Z,17.80
2022-11-07T13:17:15.219Z,17.80
2022-11-07T13:20:06.058Z,17.80
2022-11-07T13:22:41.047Z,17.80
2022-11-07T13:25:24.995Z,17.80
2022-11-07T13:27:58.583Z,17.90
2022-11-07T13:30:31.428Z,17.90
2022-11-07T13:33:00.549Z,17.90
2022-11-07T13:35:36.130Z,18.00
2022-11-07T13:38:10.567Z,18.00
2022-11-07T13:40:45.255Z,18.00
2022-11-07T13:43:26.832Z,18.10
2022-11-07T13:45:55.791Z,18.10
2022-11-07T13:48:24.912Z,18.10
2022-11-07T13:51:03.848Z,18.10
2022-11-07T13:53:44.753Z,18.10
2022-11-07T13:56:49.577Z,18.10
2022-11-07T13:59:39.098Z,18.10
2022-11-07T14:02:06.941Z,18.10
2022-11-07T14:04:44.731Z,18.10
2022-11-07T14:07:26.334Z,18.10
2022-11-07T14:09:59.683Z,18.10
2022-11-07T14:12:28.006Z,18.20
2022-11-07T14:14:58.682Z,18.20
2022-11-07T14:17:36.174Z,18.20
2022-11-07T14:20:19.773Z,18.20
2022-11-07T14:22:53.018Z,18.10
2022-11-07T14:25:32.981Z,18.10
2022-11-07T14:28:01.190Z,18.10
2022-11-07T14:30:31.776Z,18.10
2022-11-07T14:33:02.272Z,18.10
2022-11-07T14:35:35.227Z,18.10
2022-11-07T14:38:18.800Z,18.00
2022-11-07T14:40:46.650Z,18.00
2022-11-07T14:43:17.813Z,18.00
2022-11-07T14:46:11.302Z,18.00
2022-11-07T14:48:35.289Z,18.00
2022-11-07T14:51:03.459Z,17.90
2022-11-07T14:53:37.553Z,17.90
2022-11-07T14:56:09.050Z,17.90
2022-11-07T14:58:36.362Z,17.90
2022-11-07T15:01:06.673Z,17.90
2022-11-07T15:03:37.023Z,17.90
2022-11-07T15:06:04.923Z,17.90
2022-11-07T15:08:38.956Z,17.90
2022-11-07T15:11:15.055Z,17.90
2022-11-07T15:13:42.979Z,17.90
2022-11-07T15:16:18.379Z,17.90
2022-11-07T15:18:48.876Z,17.90
2022-11-07T15:21:35.383Z,17.90
2022-11-07T15:24:25.143Z,17.90
2022-11-07T15:27:17.127Z,17.90
2022-11-07T15:29:56.808Z,17.80
2022-11-07T15:32:29.245Z,17.90
2022-11-07T15:35:17.478Z,17.90
2022-11-07T15:37:54.490Z,17.80
2022-11-07T15:40:22.041Z,17.80
2022-11-07T15:42:49.293Z,17.80
2022-11-07T15:45:20.037Z,17.80
2022-11-07T15:47:48.029Z,17.80
2022-11-07T15:50:17.953Z,17.80
2022-11-07T15:52:46.210Z,17.80
2022-11-07T15:55:19.538Z,17.80
2022-11-07T15:57:52.044Z,17.80
2022-11-07T16:00:20.757Z,17.80
2022-11-07T16:02:48.064Z,17.70
2022-11-07T16:05:16.056Z,17.70
2022-11-07T16:07:44.763Z,17.70
2022-11-07T16:10:24.871Z,17.70
2022-11-07T16:12:54.977Z,17.70
2022-11-07T16:15:26.137Z,17.70
2022-11-07T16:17:53.323Z,17.70
2022-11-07T16:20:23.346Z,17.70
2022-11-07T16:22:50.886Z,17.70
2022-11-07T16:25:24.394Z,17.70
2022-11-07T16:27:56.332Z,17.70
2022-11-07T16:30:26.376Z,17.70
2022-11-07T16:32:53.764Z,17.60
2022-11-07T16:35:21.475Z,17.60
2022-11-07T16:37:48.807Z,17.60
2022-11-07T16:40:18.749Z,17.60
2022-11-07T16:42:46.627Z,17.60
2022-11-07T16:45:18.031Z,17.60
2022-11-07T16:47:45.439Z,17.60
2022-11-07T16:50:19.219Z,17.60
2022-11-07T16:52:46.391Z,17.50
2022-11-07T16:55:18.846Z,17.50
2022-11-07T16:57:46.883Z,17.50
2022-11-07T17:00:23.778Z,17.50
2022-11-07T17:02:51.220Z,17.50
2022-11-07T17:05:18.826Z,17.50
2022-11-07T17:07:46.181Z,17.50
2022-11-07T17:10:16.893Z,17.50
2022-11-07T17:12:44.168Z,17.50
2022-11-07T17:15:11.633Z,17.40
2022-11-07T17:17:39.365Z,17.40
2022-11-07T17:20:07.519Z,17.40
2022-11-07T17:22:34.701Z,17.30
2022-11-07T17:25:01.855Z,17.30
2022-11-07T17:27:29.051Z,17.30
2022-11-07T17:29:56.270Z,17.20
2022-11-07T17:32:23.475Z,17.20
2022-11-07T17:35:17.798Z,17.20
2022-11-07T17:37:37.914Z,17.20
2022-11-07T17:40:06.611Z,17.20
2022-11-07T17:42:37.813Z,17.20
2022-11-07T17:45:08.077Z,17.10
2022-11-07T17:47:37.872Z,17.10
2022-11-07T17:50:05.372Z,17.10
2022-11-07T17:52:32.609Z,17.10
2022-11-07T17:54:59.796Z,17.10
2022-11-07T17:57:26.879Z,17.10
2022-11-07T17:59:54.035Z,17.00
2022-11-07T18:02:21.391Z,17.00
2022-11-07T18:04:48.734Z,17.00
2022-11-07T18:07:16.026Z,17.00
2022-11-07T18:09:46.397Z,17.00
2022-11-07T18:12:13.543Z,17.00
2022-11-07T18:14:42.949Z,17.00
2022-11-07T18:17:14.575Z,17.10
2022-11-07T18:19:41.683Z,17.00
2022-11-07T18:22:11.895Z,17.00
2022-11-07T18:24:39.108Z,17.00
2022-11-07T18:27:10.267Z,17.00
2022-11-07T18:29:39.992Z,17.00
2022-11-07T18:32:07.139Z,17.00
2022-11-07T18:34:34.294Z,17.00
2022-11-07T18:37:01.455Z,17.00
2022-11-07T18:39:28.801Z,17.00
2022-11-07T18:41:58.208Z,17.00
2022-11-07T18:44:27.854Z,17.00
2022-11-07T18:46:55.036Z,17.00
2022-11-07T18:49:22.226Z,17.00
2022-11-07T18:51:49.343Z,17.00
2022-11-07T18:54:16.480Z,16.90
2022-11-07T18:56:43.893Z,16.90
2022-11-07T18:59:13.731Z,16.90
2022-11-07T19:01:41.340Z,16.90
2022-11-07T19:04:10.363Z,16.90
2022-11-07T19:06:56.847Z,16.80
2022-11-07T19:09:32.338Z,16.80
2022-11-07T19:12:00.581Z,16.80
2022-11-07T19:14:30.858Z,16.80
2022-11-07T19:16:58.291Z,16.80
2022-11-07T19:19:25.422Z,16.80
2022-11-07T19:21:52.573Z,16.70
2022-11-07T19:24:19.704Z,16.70
2022-11-07T19:26:49.115Z,16.70
2022-11-07T19:29:16.815Z,16.70
2022-11-07T19:32:06.549Z,16.70
2022-11-07T19:34:34.070Z,16.60
2022-11-07T19:37:01.331Z,16.60
2022-11-07T19:39:28.633Z,16.60
2022-11-07T19:41:55.812Z,16.60
2022-11-07T19:44:22.986Z,16.60
2022-11-07T19:46:50.084Z,16.50
2022-11-07T19:49:18.158Z,16.50
2022-11-07T19:51:45.314Z,16.50
2022-11-07T19:54:12.765Z,16.50
2022-11-07T19:56:42.411Z,16.50
2022-11-07T19:59:09.950Z,16.50
2022-11-07T20:01:39.267Z,16.40
2022-11-07T20:04:08.705Z,16.40
2022-11-07T20:06:40.271Z,16.40
2022-11-07T20:09:09.693Z,16.40
2022-11-07T20:11:37.133Z,16.40
2022-11-07T20:14:05.387Z,16.30
2022-11-07T20:16:33.968Z,16.30
2022-11-07T20:19:01.493Z,16.30
2022-11-07T20:21:29.430Z,16.30
2022-11-07T20:23:59.852Z,16.20
2022-11-07T20:26:29.809Z,16.20
2022-11-07T20:28:57.340Z,16.30
2022-11-07T20:31:30.454Z,16.20
2022-11-07T20:33:59.277Z,16.20
2022-11-07T20:36:31.066Z,16.20
2022-11-07T20:38:59.754Z,16.20
2022-11-07T20:41:27.851Z,16.10
2022-11-07T20:43:56.536Z,16.10
2022-11-07T20:46:24.133Z,16.10
2022-11-07T20:48:51.540Z,16.10
2022-11-07T20:51:21.200Z,16.10
2022-11-07T20:53:50.713Z,16.00
2022-11-07T20:56:19.418Z,16.00
2022-11-07T20:58:47.388Z,16.00
2022-11-07T21:01:26.501Z,16.00
2022-11-07T21:03:54.026Z,16.00
2022-11-07T21:06:21.319Z,16.00
2022-11-07T21:08:50.366Z,15.90
2022-11-07T21:11:17.576Z,15.90
2022-11-07T21:13:52.403Z,15.90
2022-11-07T21:16:24.646Z,15.90
2022-11-07T21:18:53.434Z,15.90
2022-11-07T21:21:27.553Z,15.90
2022-11-07T21:23:56.522Z,15.90
2022-11-07T21:26:36.018Z,15.90
2022-11-07T21:29:06.563Z,15.80
2022-11-07T21:31:37.754Z,15.80
2022-11-07T21:34:06.784Z,15.80
2022-11-07T21:36:34.766Z,15.80
2022-11-07T21:39:02.445Z,15.80
2022-11-07T21:41:30.526Z,15.80
2022-11-07T21:43:58.183Z,15.80
2022-11-07T21:46:28.184Z,15.70
2022-11-07T21:48:55.950Z,15.70
2022-11-07T21:51:26.558Z,15.70
2022-11-07T21:53:53.827Z,15.70
2022-11-07T21:56:23.293Z,15.70
2022-11-07T21:58:52.299Z,15.60
2022-11-07T22:01:20.569Z,15.60
2022-11-07T22:06:37.111Z,15.60
2022-11-07T22:09:05.830Z,15.60
2022-11-07T22:11:33.205Z,15.50
2022-11-07T22:14:02.715Z,15.50
2022-11-07T22:16:32.355Z,15.50
2022-11-07T22:19:00.640Z,15.50
2022-11-07T22:21:31.315Z,15.50
2022-11-07T22:23:58.838Z,15.40
2022-11-07T22:26:29.247Z,15.40
2022-11-07T22:29:00.100Z,15.40
2022-11-07T22:31:31.844Z,15.40
2022-11-07T22:34:00.751Z,15.40
2022-11-07T22:36:29.089Z,15.40
2022-11-07T22:38:59.119Z,15.40
2022-11-07T22:41:30.583Z,15.40
2022-11-07T22:44:00.845Z,15.40
2022-11-07T22:46:30.139Z,15.30
2022-11-07T22:48:58.624Z,15.30
2022-11-07T22:51:31.247Z,15.30
2022-11-07T22:54:07.000Z,15.30
2022-11-07T22:56:36.970Z,15.30
2022-11-07T22:59:05.706Z,15.20
2022-11-07T23:01:40.487Z,15.20
2022-11-07T23:04:10.153Z,15.20
2022-11-07T23:06:37.250Z,15.20
2022-11-07T23:09:04.401Z,15.20
2022-11-07T23:11:49.823Z,15.20
2022-11-07T23:14:20.083Z,15.20
2022-11-07T23:16:49.823Z,15.20
2022-11-07T23:19:20.372Z,15.20
2022-11-07T23:21:48.889Z,15.10
2022-11-07T23:24:16.054Z,15.10
2022-11-07T23:26:43.924Z,15.10
2022-11-07T23:29:17.125Z,15.10
2022-11-07T23:31:47.065Z,15.10
2022-11-07T23:34:18.279Z,15.10
2022-11-07T23:36:45.455Z,15.00
2022-11-07T23:39:18.047Z,15.00
2022-11-07T23:41:47.665Z,15.00
2022-11-07T23:44:19.158Z,15.00
2022-11-07T23:47:04.807Z,15.00
2022-11-07T23:49:50.501Z,15.00
2022-11-07T23:52:18.042Z,14.90
2022-11-07T23:55:03.546Z,14.90
2022-11-07T23:57:34.638Z,14.90
